sensor_id;sensor_type;location;lat;lon;timestamp;temperature;humidity
52439;DHT22;38359;53.150;6.504;2023-04-16T00:08:13;10.10;99.90
52439;DHT22;38359;53.150;6.504;2023-04-16T00:18:39;10.10;99.90
52439;DHT22;38359;53.150;6.504;2023-04-16T00:29:05;10.10;99.90
52439;DHT22;38359;53.150;6.504;2023-04-16T00:39:30;10.30;99.90
52439;DHT22;38359;53.150;6.504;2023-04-16T00:49:56;10.20;99.90
52439;DHT22;38359;53.150;6.504;2023-04-16T01:00:22;10.20;99.90
52439;DHT22;38359;53.150;6.504;2023-04-16T01:10:48;10.30;99.90
52439;DHT22;38359;53.150;6.504;2023-04-16T01:21:13;10.10;99.90
52439;DHT22;38359;53.150;6.504;2023-04-16T01:31:39;10.00;99.90
52439;DHT22;38359;53.150;6.504;2023-04-16T01:42:05;10.10;99.90
52439;DHT22;38359;53.150;6.504;2023-04-16T01:52:31;10.10;99.90
52439;DHT22;38359;53.150;6.504;2023-04-16T02:02:56;10.20;99.90
52439;DHT22;38359;53.150;6.504;2023-04-16T02:13:22;10.00;99.90
52439;DHT22;38359;53.150;6.504;2023-04-16T02:23:50;10.00;99.90
52439;DHT22;38359;53.150;6.504;2023-04-16T02:34:16;10.00;99.90
52439;DHT22;38359;53.150;6.504;2023-04-16T02:44:41;10.10;99.90
52439;DHT22;38359;53.150;6.504;2023-04-16T02:55:08;10.40;99.90
52439;DHT22;38359;53.150;6.504;2023-04-16T03:05:35;10.00;99.90
52439;DHT22;38359;53.150;6.504;2023-04-16T03:16:01;10.00;99.90
52439;DHT22;38359;53.150;6.504;2023-04-16T03:26:27;10.00;99.90
52439;DHT22;38359;53.150;6.504;2023-04-16T03:36:52;9.70;99.90
52439;DHT22;38359;53.150;6.504;2023-04-16T03:47:19;9.90;99.90
52439;DHT22;38359;53.150;6.504;2023-04-16T03:57:44;9.80;99.90
52439;DHT22;38359;53.150;6.504;2023-04-16T04:08:10;9.90;99.90
52439;DHT22;38359;53.150;6.504;2023-04-16T04:18:36;9.80;99.90
52439;DHT22;38359;53.150;6.504;2023-04-16T04:29:02;9.70;99.90
52439;DHT22;38359;53.150;6.504;2023-04-16T04:39:28;9.80;99.90
52439;DHT22;38359;53.150;6.504;2023-04-16T04:49:54;9.80;99.90
52439;DHT22;38359;53.150;6.504;2023-04-16T05:00:19;9.60;99.90
52439;DHT22;38359;53.150;6.504;2023-04-16T05:10:45;9.60;99.90
52439;DHT22;38359;53.150;6.504;2023-04-16T05:21:11;9.70;99.90
52439;DHT22;38359;53.150;6.504;2023-04-16T05:31:37;9.80;99.90
52439;DHT22;38359;53.150;6.504;2023-04-16T05:42:03;9.80;99.90
52439;DHT22;38359;53.150;6.504;2023-04-16T05:52:28;9.80;99.90
52439;DHT22;38359;53.150;6.504;2023-04-16T06:02:54;9.80;99.90
52439;DHT22;38359;53.150;6.504;2023-04-16T06:13:20;9.70;99.90
52439;DHT22;38359;53.150;6.504;2023-04-16T06:23:46;10.00;99.90
52439;DHT22;38359;53.150;6.504;2023-04-16T06:34:12;10.00;99.90
52439;DHT22;38359;53.150;6.504;2023-04-16T06:44:37;10.40;99.90
52439;DHT22;38359;53.150;6.504;2023-04-16T06:55:03;10.40;99.90
52439;DHT22;38359;53.150;6.504;2023-04-16T07:05:31;10.60;99.90
52439;DHT22;38359;53.150;6.504;2023-04-16T07:15:58;10.40;99.90
52439;DHT22;38359;53.150;6.504;2023-04-16T07:26:24;11.60;99.90
52439;DHT22;38359;53.150;6.504;2023-04-16T07:36:50;10.60;99.90
52439;DHT22;38359;53.150;6.504;2023-04-16T07:47:16;10.60;99.90
52439;DHT22;38359;53.150;6.504;2023-04-16T07:57:42;10.70;99.90
52439;DHT22;38359;53.150;6.504;2023-04-16T08:08:07;10.80;99.90
52439;DHT22;38359;53.150;6.504;2023-04-16T08:18:33;10.90;99.90
52439;DHT22;38359;53.150;6.504;2023-04-16T08:28:59;10.90;99.90
52439;DHT22;38359;53.150;6.504;2023-04-16T08:39:25;10.80;99.90
52439;DHT22;38359;53.150;6.504;2023-04-16T08:49:53;11.40;99.90
52439;DHT22;38359;53.150;6.504;2023-04-16T09:00:21;11.80;99.90
52439;DHT22;38359;53.150;6.504;2023-04-16T09:10:48;11.80;99.90
52439;DHT22;38359;53.150;6.504;2023-04-16T09:21:14;11.90;99.90
52439;DHT22;38359;53.150;6.504;2023-04-16T09:31:40;12.10;99.90
52439;DHT22;38359;53.150;6.504;2023-04-16T09:42:27;12.10;99.90
52439;DHT22;38359;53.150;6.504;2023-04-16T09:52:54;12.30;99.90
52439;DHT22;38359;53.150;6.504;2023-04-16T10:03:28;12.80;99.90
52439;DHT22;38359;53.150;6.504;2023-04-16T10:13:57;13.30;99.90
52439;DHT22;38359;53.150;6.504;2023-04-16T10:24:24;13.50;99.90
52439;DHT22;38359;53.150;6.504;2023-04-16T10:34:50;13.60;99.90
52439;DHT22;38359;53.150;6.504;2023-04-16T10:45:16;13.50;99.90
52439;DHT22;38359;53.150;6.504;2023-04-16T10:56:08;14.10;99.90
52439;DHT22;38359;53.150;6.504;2023-04-16T11:06:36;13.40;99.90
52439;DHT22;38359;53.150;6.504;2023-04-16T11:17:05;13.50;99.90
52439;DHT22;38359;53.150;6.504;2023-04-16T11:27:31;13.20;99.90
52439;DHT22;38359;53.150;6.504;2023-04-16T11:37:57;12.90;99.90
52439;DHT22;38359;53.150;6.504;2023-04-16T11:48:23;13.10;99.90
52439;DHT22;38359;53.150;6.504;2023-04-16T11:59:11;13.40;99.90
52439;DHT22;38359;53.150;6.504;2023-04-16T12:09:38;13.10;99.90
52439;DHT22;38359;53.150;6.504;2023-04-16T12:20:10;13.90;99.90
52439;DHT22;38359;53.150;6.504;2023-04-16T12:30:48;13.70;99.90
52439;DHT22;38359;53.150;6.504;2023-04-16T12:41:15;13.80;99.90
52439;DHT22;38359;53.150;6.504;2023-04-16T12:51:41;14.10;99.90
52439;DHT22;38359;53.150;6.504;2023-04-16T13:02:07;13.90;99.90
52439;DHT22;38359;53.150;6.504;2023-04-16T13:12:33;14.30;99.90
52439;DHT22;38359;53.150;6.504;2023-04-16T13:22:59;15.00;99.90
52439;DHT22;38359;53.150;6.504;2023-04-16T13:33:24;15.10;99.90
52439;DHT22;38359;53.150;6.504;2023-04-16T13:43:52;15.10;99.90
52439;DHT22;38359;53.150;6.504;2023-04-16T13:54:18;15.60;99.90
52439;DHT22;38359;53.150;6.504;2023-04-16T14:04:44;15.60;99.90
52439;DHT22;38359;53.150;6.504;2023-04-16T14:15:10;15.50;99.90
52439;DHT22;38359;53.150;6.504;2023-04-16T14:25:39;15.60;99.90
52439;DHT22;38359;53.150;6.504;2023-04-16T14:36:05;15.80;99.90
52439;DHT22;38359;53.150;6.504;2023-04-16T14:46:31;16.50;99.90
52439;DHT22;38359;53.150;6.504;2023-04-16T14:56:58;17.80;99.90
52439;DHT22;38359;53.150;6.504;2023-04-16T15:07:23;17.60;99.90
52439;DHT22;38359;53.150;6.504;2023-04-16T15:17:50;16.70;99.90
52439;DHT22;38359;53.150;6.504;2023-04-16T15:28:16;16.60;99.90
52439;DHT22;38359;53.150;6.504;2023-04-16T15:38:42;16.30;99.90
52439;DHT22;38359;53.150;6.504;2023-04-16T15:49:08;15.10;99.90
52439;DHT22;38359;53.150;6.504;2023-04-16T15:59:33;14.50;99.90
52439;DHT22;38359;53.150;6.504;2023-04-16T16:09:59;14.00;99.90
52439;DHT22;38359;53.150;6.504;2023-04-16T16:20:25;13.30;99.90
52439;DHT22;38359;53.150;6.504;2023-04-16T16:30:51;12.70;99.90
52439;DHT22;38359;53.150;6.504;2023-04-16T16:41:19;12.50;99.90
52439;DHT22;38359;53.150;6.504;2023-04-16T16:51:46;12.10;99.90
52439;DHT22;38359;53.150;6.504;2023-04-16T17:02:12;11.80;99.90
52439;DHT22;38359;53.150;6.504;2023-04-16T17:12:38;11.40;99.90
52439;DHT22;38359;53.150;6.504;2023-04-16T17:23:04;11.20;99.90
52439;DHT22;38359;53.150;6.504;2023-04-16T17:33:29;11.20;99.90
52439;DHT22;38359;53.150;6.504;2023-04-16T17:43:55;11.00;99.90
52439;DHT22;38359;53.150;6.504;2023-04-16T17:54:21;10.60;99.90
52439;DHT22;38359;53.150;6.504;2023-04-16T18:04:47;10.40;99.90
52439;DHT22;38359;53.150;6.504;2023-04-16T18:15:13;10.30;99.90
52439;DHT22;38359;53.150;6.504;2023-04-16T18:25:39;10.40;99.90
52439;DHT22;38359;53.150;6.504;2023-04-16T18:36:05;10.00;99.90
52439;DHT22;38359;53.150;6.504;2023-04-16T18:46:31;9.80;99.90
52439;DHT22;38359;53.150;6.504;2023-04-16T18:56:56;9.60;99.90
52439;DHT22;38359;53.150;6.504;2023-04-16T19:07:22;9.80;99.90
52439;DHT22;38359;53.150;6.504;2023-04-16T19:17:48;9.80;99.90
52439;DHT22;38359;53.150;6.504;2023-04-16T19:28:17;9.80;99.90
52439;DHT22;38359;53.150;6.504;2023-04-16T19:38:43;9.60;99.90
52439;DHT22;38359;53.150;6.504;2023-04-16T19:49:09;9.50;99.90
52439;DHT22;38359;53.150;6.504;2023-04-16T19:59:34;9.50;99.90
52439;DHT22;38359;53.150;6.504;2023-04-16T20:10:00;9.30;99.90
52439;DHT22;38359;53.150;6.504;2023-04-16T20:20:27;9.50;99.90
52439;DHT22;38359;53.150;6.504;2023-04-16T20:30:53;9.40;99.90
52439;DHT22;38359;53.150;6.504;2023-04-16T20:41:18;9.20;99.90
52439;DHT22;38359;53.150;6.504;2023-04-16T20:51:49;9.20;99.90
52439;DHT22;38359;53.150;6.504;2023-04-16T21:02:15;9.20;99.90
52439;DHT22;38359;53.150;6.504;2023-04-16T21:12:41;9.20;99.90
52439;DHT22;38359;53.150;6.504;2023-04-16T21:23:07;9.20;99.90
52439;DHT22;38359;53.150;6.504;2023-04-16T21:33:33;9.20;99.90
52439;DHT22;38359;53.150;6.504;2023-04-16T21:43:58;9.10;99.90
52439;DHT22;38359;53.150;6.504;2023-04-16T21:54:24;9.30;99.90
52439;DHT22;38359;53.150;6.504;2023-04-16T22:04:50;9.30;99.90
52439;DHT22;38359;53.150;6.504;2023-04-16T22:15:16;9.20;99.90
52439;DHT22;38359;53.150;6.504;2023-04-16T22:25:42;9.40;99.90
52439;DHT22;38359;53.150;6.504;2023-04-16T22:36:07;9.40;99.90
52439;DHT22;38359;53.150;6.504;2023-04-16T22:46:33;9.30;99.90
52439;DHT22;38359;53.150;6.504;2023-04-16T22:56:59;9.20;99.90
52439;DHT22;38359;53.150;6.504;2023-04-16T23:07:25;9.30;99.90
52439;DHT22;38359;53.150;6.504;2023-04-16T23:17:51;9.40;99.90
52439;DHT22;38359;53.150;6.504;2023-04-16T23:28:16;9.10;99.90
52439;DHT22;38359;53.150;6.504;2023-04-16T23:38:42;9.30;99.90
52439;DHT22;38359;53.150;6.504;2023-04-16T23:49:08;9.20;99.90
52439;DHT22;38359;53.150;6.504;2023-04-16T23:59:34;9.20;99.90
